sensor_id;sensor_type;location;lat;lon;timestamp;pressure;altitude;pressure_sealevel;temperature;humidity
64844;BME280;51310;52.198;5.422;2023-11-22T00:01:05;102637.16;;;4.11;99.96
64844;BME280;51310;52.198;5.422;2023-11-22T00:03:31;102638.91;;;4.13;100.00
64844;BME280;51310;52.198;5.422;2023-11-22T00:05:58;102641.56;;;4.12;99.89
64844;BME280;51310;52.198;5.422;2023-11-22T00:08:24;102629.19;;;4.14;99.80
64844;BME280;51310;52.198;5.422;2023-11-22T00:10:49;102620.38;;;4.12;99.94
64844;BME280;51310;52.198;5.422;2023-11-22T00:13:15;102638.00;;;4.19;99.78
64844;BME280;51310;52.198;5.422;2023-11-22T00:15:41;102639.78;;;4.14;99.74
64844;BME280;51310;52.198;5.422;2023-11-22T00:18:07;102671.53;;;4.15;99.81
64844;BME280;51310;52.198;5.422;2023-11-22T00:20:33;102644.31;;;4.01;99.69
64844;BME280;51310;52.198;5.422;2023-11-22T00:22:59;102679.41;;;4.26;99.58
64844;BME280;51310;52.198;5.422;2023-11-22T00:25:25;102664.47;;;4.16;99.74
64844;BME280;51310;52.198;5.422;2023-11-22T00:27:51;102678.53;;;4.24;99.64
64844;BME280;51310;52.198;5.422;2023-11-22T00:30:17;102676.81;;;4.20;99.58
64844;BME280;51310;52.198;5.422;2023-11-22T00:32:44;102675.09;;;4.13;99.50
64844;BME280;51310;52.198;5.422;2023-11-22T00:35:10;102656.59;;;4.05;99.45
64844;BME280;51310;52.198;5.422;2023-11-22T00:37:35;102653.94;;;4.07;99.39
64844;BME280;51310;52.198;5.422;2023-11-22T00:40:02;102646.97;;;3.95;99.50
64844;BME280;51310;52.198;5.422;2023-11-22T00:42:36;102652.28;;;3.93;99.29
64844;BME280;51310;52.198;5.422;2023-11-22T00:45:06;102671.69;;;3.89;99.49
64844;BME280;51310;52.198;5.422;2023-11-22T00:47:33;102658.56;;;3.77;99.59
64844;BME280;51310;52.198;5.422;2023-11-22T00:49:59;102666.56;;;3.60;99.73
64844;BME280;51310;52.198;5.422;2023-11-22T00:52:25;102655.19;;;3.47;100.00
64844;BME280;51310;52.198;5.422;2023-11-22T00:54:51;102651.69;;;3.36;99.89
64844;BME280;51310;52.198;5.422;2023-11-22T00:57:17;102664.03;;;3.36;100.00
64844;BME280;51310;52.198;5.422;2023-11-22T00:59:43;102676.41;;;3.23;100.00
64844;BME280;51310;52.198;5.422;2023-11-22T01:02:09;102675.56;;;3.18;100.00
64844;BME280;51310;52.198;5.422;2023-11-22T01:04:35;102697.59;;;3.07;100.00
64844;BME280;51310;52.198;5.422;2023-11-22T01:07:03;102677.38;;;2.91;100.00
64844;BME280;51310;52.198;5.422;2023-11-22T01:09:33;102688.81;;;2.85;100.00
64844;BME280;51310;52.198;5.422;2023-11-22T01:11:59;102697.59;;;2.87;100.00
64844;BME280;51310;52.198;5.422;2023-11-22T01:14:26;102709.94;;;2.90;100.00
64844;BME280;51310;52.198;5.422;2023-11-22T01:16:53;102736.31;;;3.19;100.00
64844;BME280;51310;52.198;5.422;2023-11-22T01:19:22;102718.72;;;3.09;100.00
64844;BME280;51310;52.198;5.422;2023-11-22T01:21:48;102748.66;;;3.14;100.00
64844;BME280;51310;52.198;5.422;2023-11-22T01:24:14;102738.09;;;3.11;100.00
64844;BME280;51310;52.198;5.422;2023-11-22T01:26:40;102738.09;;;3.14;100.00
64844;BME280;51310;52.198;5.422;2023-11-22T01:29:06;102714.31;;;2.88;100.00
64844;BME280;51310;52.198;5.422;2023-11-22T01:31:32;102747.78;;;3.07;100.00
64844;BME280;51310;52.198;5.422;2023-11-22T01:33:59;102749.53;;;3.05;100.00
64844;BME280;51310;52.198;5.422;2023-11-22T01:36:26;102750.41;;;3.01;100.00
64844;BME280;51310;52.198;5.422;2023-11-22T01:38:53;102734.56;;;2.92;100.00
64844;BME280;51310;52.198;5.422;2023-11-22T01:41:19;102732.81;;;2.79;100.00
64844;BME280;51310;52.198;5.422;2023-11-22T01:43:45;102726.66;;;2.77;100.00
64844;BME280;51310;52.198;5.422;2023-11-22T01:46:24;102734.59;;;2.75;100.00
64844;BME280;51310;52.198;5.422;2023-11-22T01:48:52;102733.69;;;2.70;100.00
64844;BME280;51310;52.198;5.422;2023-11-22T01:51:23;102732.81;;;2.69;100.00
64844;BME280;51310;52.198;5.422;2023-11-22T01:53:53;102734.59;;;2.67;100.00
64844;BME280;51310;52.198;5.422;2023-11-22T01:56:23;102717.00;;;2.53;100.00
64844;BME280;51310;52.198;5.422;2023-11-22T01:58:52;102736.34;;;2.59;100.00
64844;BME280;51310;52.198;5.422;2023-11-22T02:01:23;102733.72;;;2.50;100.00
64844;BME280;51310;52.198;5.422;2023-11-22T02:03:50;102738.97;;;2.52;100.00
64844;BME280;51310;52.198;5.422;2023-11-22T02:06:18;102736.34;;;2.52;100.00
64844;BME280;51310;52.198;5.422;2023-11-22T02:08:44;102731.03;;;2.41;100.00
64844;BME280;51310;52.198;5.422;2023-11-22T02:11:10;102732.78;;;2.34;100.00
64844;BME280;51310;52.198;5.422;2023-11-22T02:13:36;102743.38;;;2.45;100.00
64844;BME280;51310;52.198;5.422;2023-11-22T02:16:03;102739.84;;;2.44;100.00
64844;BME280;51310;52.198;5.422;2023-11-22T02:18:30;102732.81;;;2.42;100.00
64844;BME280;51310;52.198;5.422;2023-11-22T02:20:56;102718.75;;;2.32;100.00
64844;BME280;51310;52.198;5.422;2023-11-22T02:23:22;102731.94;;;2.40;100.00
64844;BME280;51310;52.198;5.422;2023-11-22T02:25:48;102734.56;;;2.47;100.00
64844;BME280;51310;52.198;5.422;2023-11-22T02:28:14;102719.63;;;2.42;100.00
64844;BME280;51310;52.198;5.422;2023-11-22T02:30:40;102739.88;;;2.46;100.00
64844;BME280;51310;52.198;5.422;2023-11-22T02:33:07;102744.25;;;2.39;100.00
64844;BME280;51310;52.198;5.422;2023-11-22T02:35:33;102744.25;;;2.35;100.00
64844;BME280;51310;52.198;5.422;2023-11-22T02:38:00;102722.22;;;2.26;100.00
64844;BME280;51310;52.198;5.422;2023-11-22T02:40:26;102742.47;;;2.34;100.00
64844;BME280;51310;52.198;5.422;2023-11-22T02:42:53;102729.28;;;2.38;100.00
64844;BME280;51310;52.198;5.422;2023-11-22T02:45:28;102735.44;;;2.45;100.00
64844;BME280;51310;52.198;5.422;2023-11-22T02:47:54;102723.13;;;2.41;100.00
64844;BME280;51310;52.198;5.422;2023-11-22T02:50:20;102731.91;;;2.29;100.00
64844;BME280;51310;52.198;5.422;2023-11-22T02:52:46;102731.03;;;2.28;100.00
64844;BME280;51310;52.198;5.422;2023-11-22T02:55:12;102724.00;;;2.26;100.00
64844;BME280;51310;52.198;5.422;2023-11-22T02:57:40;102721.31;;;2.14;100.00
64844;BME280;51310;52.198;5.422;2023-11-22T03:00:07;102723.13;;;2.28;100.00
64844;BME280;51310;52.198;5.422;2023-11-22T03:02:37;102724.88;;;2.29;100.00
64844;BME280;51310;52.198;5.422;2023-11-22T03:05:03;102666.78;;;1.96;100.00
64844;BME280;51310;52.198;5.422;2023-11-22T03:07:29;102707.25;;;2.13;100.00
64844;BME280;51310;52.198;5.422;2023-11-22T03:09:55;102705.50;;;2.11;100.00
64844;BME280;51310;52.198;5.422;2023-11-22T03:12:24;102721.34;;;2.15;100.00
64844;BME280;51310;52.198;5.422;2023-11-22T03:14:50;102737.19;;;2.27;100.00
64844;BME280;51310;52.198;5.422;2023-11-22T03:17:16;102747.72;;;2.23;100.00
64844;BME280;51310;52.198;5.422;2023-11-22T03:19:42;102749.50;;;2.28;100.00
64844;BME280;51310;52.198;5.422;2023-11-22T03:22:10;102757.41;;;2.28;100.00
64844;BME280;51310;52.198;5.422;2023-11-22T03:24:35;102758.28;;;2.21;100.00
64844;BME280;51310;52.198;5.422;2023-11-22T03:27:03;102759.16;;;2.19;100.00
64844;BME280;51310;52.198;5.422;2023-11-22T03:29:29;102764.41;;;2.13;100.00
64844;BME280;51310;52.198;5.422;2023-11-22T03:31:55;102756.47;;;2.02;100.00
64844;BME280;51310;52.198;5.422;2023-11-22T03:34:21;102781.09;;;2.07;100.00
64844;BME280;51310;52.198;5.422;2023-11-22T03:36:47;102765.28;;;2.10;100.00
64844;BME280;51310;52.198;5.422;2023-11-22T03:39:15;102789.91;;;2.15;100.00
64844;BME280;51310;52.198;5.422;2023-11-22T03:41:42;102789.00;;;2.12;100.00
64844;BME280;51310;52.198;5.422;2023-11-22T03:44:08;102781.13;;;2.10;100.00
64844;BME280;51310;52.198;5.422;2023-11-22T03:46:36;102800.47;;;2.18;100.00
64844;BME280;51310;52.198;5.422;2023-11-22T03:49:05;102794.28;;;2.07;100.00
64844;BME280;51310;52.198;5.422;2023-11-22T03:51:39;102808.38;;;2.14;100.00
64844;BME280;51310;52.198;5.422;2023-11-22T03:54:06;102781.94;;;1.95;100.00
64844;BME280;51310;52.198;5.422;2023-11-22T03:56:32;102796.91;;;2.02;100.00
64844;BME280;51310;52.198;5.422;2023-11-22T03:58:59;102810.97;;;2.04;100.00
64844;BME280;51310;52.198;5.422;2023-11-22T04:01:25;102821.56;;;2.12;100.00
64844;BME280;51310;52.198;5.422;2023-11-22T04:03:51;102793.34;;;1.93;100.00
64844;BME280;51310;52.198;5.422;2023-11-22T04:06:18;102835.66;;;2.14;100.00
64844;BME280;51310;52.198;5.422;2023-11-22T04:08:45;102816.25;;;2.01;100.00
64844;BME280;51310;52.198;5.422;2023-11-22T04:11:18;102847.94;;;2.12;100.00
64844;BME280;51310;52.198;5.422;2023-11-22T04:13:44;102834.72;;;2.09;100.00
64844;BME280;51310;52.198;5.422;2023-11-22T04:16:10;102831.19;;;2.04;100.00
64844;BME280;51310;52.198;5.422;2023-11-22T04:18:40;102821.53;;;2.09;100.00
64844;BME280;51310;52.198;5.422;2023-11-22T04:21:08;102835.63;;;2.11;100.00
64844;BME280;51310;52.198;5.422;2023-11-22T04:23:34;102832.97;;;2.03;100.00
64844;BME280;51310;52.198;5.422;2023-11-22T04:26:02;102845.28;;;2.07;100.00
64844;BME280;51310;52.198;5.422;2023-11-22T04:28:29;102835.63;;;2.11;100.00
64844;BME280;51310;52.198;5.422;2023-11-22T04:30:56;102820.63;;;1.98;100.00
64844;BME280;51310;52.198;5.422;2023-11-22T04:33:23;102847.00;;;1.99;100.00
64844;BME280;51310;52.198;5.422;2023-11-22T04:35:50;102851.38;;;1.96;100.00
64844;BME280;51310;52.198;5.422;2023-11-22T04:38:16;102854.88;;;1.92;100.00
64844;BME280;51310;52.198;5.422;2023-11-22T04:40:44;102850.44;;;1.86;100.00
64844;BME280;51310;52.198;5.422;2023-11-22T04:43:10;102853.03;;;1.75;100.00
64844;BME280;51310;52.198;5.422;2023-11-22T04:45:37;102856.56;;;1.79;100.00
64844;BME280;51310;52.198;5.422;2023-11-22T04:48:04;102833.66;;;1.67;100.00
64844;BME280;51310;52.198;5.422;2023-11-22T04:50:30;102852.16;;;1.76;100.00
64844;BME280;51310;52.198;5.422;2023-11-22T04:52:57;102838.09;;;1.76;100.00
64844;BME280;51310;52.198;5.422;2023-11-22T04:55:23;102819.59;;;1.65;100.00
64844;BME280;51310;52.198;5.422;2023-11-22T04:57:49;102830.13;;;1.65;100.00
64844;BME280;51310;52.198;5.422;2023-11-22T05:00:16;102842.50;;;1.78;100.00
64844;BME280;51310;52.198;5.422;2023-11-22T05:02:43;102843.38;;;1.77;100.00
64844;BME280;51310;52.198;5.422;2023-11-22T05:05:09;102838.09;;;1.76;100.00
64844;BME280;51310;52.198;5.422;2023-11-22T05:07:38;102836.38;;;1.82;100.00
64844;BME280;51310;52.198;5.422;2023-11-22T05:10:05;102836.34;;;1.79;100.00
64844;BME280;51310;52.198;5.422;2023-11-22T05:12:33;102839.03;;;1.87;100.00
64844;BME280;51310;52.198;5.422;2023-11-22T05:14:59;102837.31;;;1.94;100.00
64844;BME280;51310;52.198;5.422;2023-11-22T05:17:25;102838.19;;;1.96;100.00
64844;BME280;51310;52.198;5.422;2023-11-22T05:19:51;102815.31;;;1.88;100.00
64844;BME280;51310;52.198;5.422;2023-11-22T05:22:17;102834.72;;;1.98;100.00
64844;BME280;51310;52.198;5.422;2023-11-22T05:24:43;102830.31;;;1.99;100.00
64844;BME280;51310;52.198;5.422;2023-11-22T05:27:09;102831.19;;;2.02;100.00
64844;BME280;51310;52.198;5.422;2023-11-22T05:29:36;102822.41;;;2.02;100.00
64844;BME280;51310;52.198;5.422;2023-11-22T05:32:03;102811.81;;;1.96;100.00
64844;BME280;51310;52.198;5.422;2023-11-22T05:34:29;102846.16;;;2.11;100.00
64844;BME280;51310;52.198;5.422;2023-11-22T05:36:55;102831.22;;;2.10;100.00
64844;BME280;51310;52.198;5.422;2023-11-22T05:39:21;102838.28;;;2.14;100.00
64844;BME280;51310;52.198;5.422;2023-11-22T05:41:52;102840.91;;;2.11;100.00
64844;BME280;51310;52.198;5.422;2023-11-22T05:44:18;102832.09;;;2.03;100.00
64844;BME280;51310;52.198;5.422;2023-11-22T05:46:45;102831.19;;;2.02;100.00
64844;BME280;51310;52.198;5.422;2023-11-22T05:49:11;102855.00;;;2.16;100.00
64844;BME280;51310;52.198;5.422;2023-11-22T05:51:37;102864.66;;;2.17;100.00
64844;BME280;51310;52.198;5.422;2023-11-22T05:54:03;102832.97;;;2.08;100.00
64844;BME280;51310;52.198;5.422;2023-11-22T05:56:30;102851.47;;;2.17;100.00
64844;BME280;51310;52.198;5.422;2023-11-22T05:58:57;102851.47;;;2.17;100.00
64844;BME280;51310;52.198;5.422;2023-11-22T06:01:25;102853.22;;;2.15;100.00
64844;BME280;51310;52.198;5.422;2023-11-22T06:03:52;102832.97;;;2.06;100.00
64844;BME280;51310;52.198;5.422;2023-11-22T06:06:19;102843.50;;;2.06;100.00
64844;BME280;51310;52.198;5.422;2023-11-22T06:08:47;102860.25;;;2.13;100.00
64844;BME280;51310;52.198;5.422;2023-11-22T06:11:14;102835.59;;;2.02;100.00
64844;BME280;51310;52.198;5.422;2023-11-22T06:13:41;102839.97;;;2.04;100.00
64844;BME280;51310;52.198;5.422;2023-11-22T06:16:11;102848.81;;;2.11;100.00
64844;BME280;51310;52.198;5.422;2023-11-22T06:18:37;102839.09;;;2.04;100.00
64844;BME280;51310;52.198;5.422;2023-11-22T06:21:09;102868.19;;;2.16;100.00
64844;BME280;51310;52.198;5.422;2023-11-22T06:23:35;102847.00;;;2.02;100.00
64844;BME280;51310;52.198;5.422;2023-11-22T06:26:02;102878.72;;;2.13;100.00
64844;BME280;51310;52.198;5.422;2023-11-22T06:28:28;102881.34;;;2.10;100.00
64844;BME280;51310;52.198;5.422;2023-11-22T06:30:54;102874.31;;;2.11;100.00
64844;BME280;51310;52.198;5.422;2023-11-22T06:33:21;102870.75;;;2.04;100.00
64844;BME280;51310;52.198;5.422;2023-11-22T06:35:46;102888.38;;;2.08;100.00
64844;BME280;51310;52.198;5.422;2023-11-22T06:38:12;102869.00;;;2.03;100.00
64844;BME280;51310;52.198;5.422;2023-11-22T06:40:38;102851.38;;;1.94;100.00
64844;BME280;51310;52.198;5.422;2023-11-22T06:43:04;102869.00;;;2.03;100.00
64844;BME280;51310;52.198;5.422;2023-11-22T06:45:31;102854.91;;;1.98;100.00
64844;BME280;51310;52.198;5.422;2023-11-22T06:47:57;102863.69;;;2.00;100.00
64844;BME280;51310;52.198;5.422;2023-11-22T06:50:24;102842.59;;;1.94;100.00
64844;BME280;51310;52.198;5.422;2023-11-22T06:52:50;102832.03;;;1.94;100.00
64844;BME280;51310;52.198;5.422;2023-11-22T06:55:18;102832.00;;;1.91;100.00
64844;BME280;51310;52.198;5.422;2023-11-22T06:57:44;102851.44;;;2.05;100.00
64844;BME280;51310;52.198;5.422;2023-11-22T07:00:11;102852.31;;;2.05;100.00
64844;BME280;51310;52.198;5.422;2023-11-22T07:02:38;102836.44;;;1.98;100.00
64844;BME280;51310;52.198;5.422;2023-11-22T07:05:05;102857.63;;;2.13;100.00
64844;BME280;51310;52.198;5.422;2023-11-22T07:07:35;102870.81;;;2.10;100.00
64844;BME280;51310;52.198;5.422;2023-11-22T07:10:02;102872.56;;;2.11;100.00
64844;BME280;51310;52.198;5.422;2023-11-22T07:12:31;102879.59;;;2.11;100.00
64844;BME280;51310;52.198;5.422;2023-11-22T07:15:00;102853.16;;;2.00;100.00
64844;BME280;51310;52.198;5.422;2023-11-22T07:17:26;102854.91;;;1.98;100.00
64844;BME280;51310;52.198;5.422;2023-11-22T07:19:54;102870.75;;;2.04;100.00
64844;BME280;51310;52.198;5.422;2023-11-22T07:22:21;102873.41;;;2.08;100.00
64844;BME280;51310;52.198;5.422;2023-11-22T07:24:49;102872.50;;;2.02;100.00
64844;BME280;51310;52.198;5.422;2023-11-22T07:27:20;102865.44;;;1.98;100.00
64844;BME280;51310;52.198;5.422;2023-11-22T07:29:46;102864.53;;;1.91;100.00
64844;BME280;51310;52.198;5.422;2023-11-22T07:32:12;102872.41;;;1.86;100.00
64844;BME280;51310;52.198;5.422;2023-11-22T07:34:40;102876.78;;;1.84;100.00
64844;BME280;51310;52.198;5.422;2023-11-22T07:37:07;102867.09;;;1.74;100.00
64844;BME280;51310;52.198;5.422;2023-11-22T07:39:37;102882.91;;;1.77;100.00
64844;BME280;51310;52.198;5.422;2023-11-22T07:42:05;102867.03;;;1.68;100.00
64844;BME280;51310;52.198;5.422;2023-11-22T07:44:35;102858.22;;;1.66;100.00
64844;BME280;51310;52.198;5.422;2023-11-22T07:47:03;102881.16;;;1.79;100.00
64844;BME280;51310;52.198;5.422;2023-11-22T07:49:34;102864.44;;;1.73;100.00
64844;BME280;51310;52.198;5.422;2023-11-22T07:52:04;102860.88;;;1.67;100.00
64844;BME280;51310;52.198;5.422;2023-11-22T07:54:31;102872.38;;;1.77;100.00
64844;BME280;51310;52.198;5.422;2023-11-22T07:56:57;102882.91;;;1.74;100.00
64844;BME280;51310;52.198;5.422;2023-11-22T07:59:23;102886.41;;;1.75;100.00
64844;BME280;51310;52.198;5.422;2023-11-22T08:01:49;102885.47;;;1.66;100.00
64844;BME280;51310;52.198;5.422;2023-11-22T08:04:15;102913.66;;;1.75;100.00
64844;BME280;51310;52.198;5.422;2023-11-22T08:06:42;102899.56;;;1.67;100.00
64844;BME280;51310;52.198;5.422;2023-11-22T08:09:08;102933.03;;;1.80;100.00
64844;BME280;51310;52.198;5.422;2023-11-22T08:11:36;102933.06;;;1.83;100.00
64844;BME280;51310;52.198;5.422;2023-11-22T08:14:02;102918.91;;;1.69;100.00
64844;BME280;51310;52.198;5.422;2023-11-22T08:16:29;102925.97;;;1.75;100.00
64844;BME280;51310;52.198;5.422;2023-11-22T08:18:55;102934.81;;;1.84;100.00
64844;BME280;51310;52.198;5.422;2023-11-22T08:21:22;102944.56;;;1.95;100.00
64844;BME280;51310;52.198;5.422;2023-11-22T08:23:49;102921.66;;;1.87;100.00
64844;BME280;51310;52.198;5.422;2023-11-22T08:26:15;102933.97;;;1.90;100.00
64844;BME280;51310;52.198;5.422;2023-11-22T08:28:42;102926.06;;;1.93;100.00
64844;BME280;51310;52.198;5.422;2023-11-22T08:31:08;102945.53;;;2.11;100.00
64844;BME280;51310;52.198;5.422;2023-11-22T08:33:38;102936.72;;;2.08;100.00
64844;BME280;51310;52.198;5.422;2023-11-22T08:36:09;102952.66;;;2.24;100.00
64844;BME280;51310;52.198;5.422;2023-11-22T08:38:35;102941.22;;;2.26;100.00
64844;BME280;51310;52.198;5.422;2023-11-22T08:41:05;102930.69;;;2.29;100.00
64844;BME280;51310;52.198;5.422;2023-11-22T08:43:34;102936.91;;;2.44;100.00
64844;BME280;51310;52.198;5.422;2023-11-22T08:46:01;102920.19;;;2.42;100.00
64844;BME280;51310;52.198;5.422;2023-11-22T08:48:32;102915.81;;;2.48;100.00
64844;BME280;51310;52.198;5.422;2023-11-22T08:51:03;102942.28;;;2.64;100.00
64844;BME280;51310;52.198;5.422;2023-11-22T08:53:29;102937.88;;;2.67;100.00
64844;BME280;51310;52.198;5.422;2023-11-22T08:55:55;102933.50;;;2.74;100.00
64844;BME280;51310;52.198;5.422;2023-11-22T08:58:23;102911.47;;;2.63;100.00
64844;BME280;51310;52.198;5.422;2023-11-22T09:00:49;102907.94;;;2.65;100.00
64844;BME280;51310;52.198;5.422;2023-11-22T09:03:15;102907.97;;;2.68;100.00
64844;BME280;51310;52.198;5.422;2023-11-22T09:05:43;102911.50;;;2.70;100.00
64844;BME280;51310;52.198;5.422;2023-11-22T09:08:09;102912.38;;;2.74;100.00
64844;BME280;51310;52.198;5.422;2023-11-22T09:10:39;102931.78;;;2.90;100.00
64844;BME280;51310;52.198;5.422;2023-11-22T09:13:05;102924.75;;;2.87;100.00
64844;BME280;51310;52.198;5.422;2023-11-22T09:15:31;102933.59;;;3.02;100.00
64844;BME280;51310;52.198;5.422;2023-11-22T09:17:59;102926.53;;;3.04;100.00
64844;BME280;51310;52.198;5.422;2023-11-22T09:20:25;102925.69;;;3.06;100.00
64844;BME280;51310;52.198;5.422;2023-11-22T09:22:54;102929.19;;;3.11;100.00
64844;BME280;51310;52.198;5.422;2023-11-22T09:25:25;102932.72;;;3.21;100.00
64844;BME280;51310;52.198;5.422;2023-11-22T09:27:56;102956.53;;;3.29;100.00
64844;BME280;51310;52.198;5.422;2023-11-22T09:30:31;102949.47;;;3.32;100.00
64844;BME280;51310;52.198;5.422;2023-11-22T09:33:09;102944.22;;;3.36;100.00
64844;BME280;51310;52.198;5.422;2023-11-22T09:35:44;102945.97;;;3.43;100.00
64844;BME280;51310;52.198;5.422;2023-11-22T09:38:13;102943.31;;;3.50;100.00
64844;BME280;51310;52.198;5.422;2023-11-22T09:40:42;102923.94;;;3.47;100.00
64844;BME280;51310;52.198;5.422;2023-11-22T09:43:11;102954.78;;;3.65;100.00
64844;BME280;51310;52.198;5.422;2023-11-22T09:45:37;102946.84;;;3.72;100.00
64844;BME280;51310;52.198;5.422;2023-11-22T09:48:15;102955.66;;;3.79;100.00
64844;BME280;51310;52.198;5.422;2023-11-22T09:50:57;102943.31;;;3.72;100.00
64844;BME280;51310;52.198;5.422;2023-11-22T09:53:40;102952.13;;;3.86;100.00
64844;BME280;51310;52.198;5.422;2023-11-22T09:56:11;102938.03;;;3.81;100.00
64844;BME280;51310;52.198;5.422;2023-11-22T09:58:41;102951.25;;;3.81;100.00
64844;BME280;51310;52.198;5.422;2023-11-22T10:01:14;102929.22;;;3.79;100.00
64844;BME280;51310;52.198;5.422;2023-11-22T10:03:42;102919.50;;;3.77;100.00
64844;BME280;51310;52.198;5.422;2023-11-22T10:06:08;102916.88;;;3.81;100.00
64844;BME280;51310;52.198;5.422;2023-11-22T10:08:34;102934.47;;;3.88;100.00
64844;BME280;51310;52.198;5.422;2023-11-22T10:11:03;102923.00;;;3.91;100.00
64844;BME280;51310;52.198;5.422;2023-11-22T10:13:29;102920.34;;;3.94;100.00
64844;BME280;51310;52.198;5.422;2023-11-22T10:15:55;102929.16;;;4.07;100.00
64844;BME280;51310;52.198;5.422;2023-11-22T10:18:33;102910.69;;;3.90;100.00
64844;BME280;51310;52.198;5.422;2023-11-22T10:21:00;102926.53;;;3.97;100.00
64844;BME280;51310;52.198;5.422;2023-11-22T10:23:29;102930.94;;;3.99;100.00
64844;BME280;51310;52.198;5.422;2023-11-22T10:25:55;102904.50;;;3.97;100.00
64844;BME280;51310;52.198;5.422;2023-11-22T10:28:22;102907.09;;;4.05;100.00
64844;BME280;51310;52.198;5.422;2023-11-22T10:30:53;102932.66;;;4.20;100.00
64844;BME280;51310;52.198;5.422;2023-11-22T10:33:19;102923.81;;;4.24;100.00
64844;BME280;51310;52.198;5.422;2023-11-22T10:35:50;102890.31;;;4.15;100.00
64844;BME280;51310;52.198;5.422;2023-11-22T10:38:18;102898.19;;;4.35;100.00
64844;BME280;51310;52.198;5.422;2023-11-22T10:40:46;102894.63;;;4.41;99.77
64844;BME280;51310;52.198;5.422;2023-11-22T10:43:14;102878.78;;;4.31;99.14
64844;BME280;51310;52.198;5.422;2023-11-22T10:45:43;102894.63;;;4.44;98.96
64844;BME280;51310;52.198;5.422;2023-11-22T10:48:15;102889.31;;;4.41;98.48
64844;BME280;51310;52.198;5.422;2023-11-22T10:50:43;102882.28;;;4.36;97.88
64844;BME280;51310;52.198;5.422;2023-11-22T10:53:16;102869.94;;;4.35;97.52
64844;BME280;51310;52.198;5.422;2023-11-22T10:55:46;102888.47;;;4.42;97.11
64844;BME280;51310;52.198;5.422;2023-11-22T10:58:15;102877.88;;;4.35;96.92
64844;BME280;51310;52.198;5.422;2023-11-22T11:00:42;102893.69;;;4.48;96.86
64844;BME280;51310;52.198;5.422;2023-11-22T11:03:18;102897.22;;;4.56;96.52
64844;BME280;51310;52.198;5.422;2023-11-22T11:05:57;102888.31;;;4.69;96.41
64844;BME280;51310;52.198;5.422;2023-11-22T11:08:26;102877.59;;;4.86;96.19
64844;BME280;51310;52.198;5.422;2023-11-22T11:10:54;102862.47;;;5.02;95.81
64844;BME280;51310;52.198;5.422;2023-11-22T11:13:22;102840.28;;;5.15;94.95
64844;BME280;51310;52.198;5.422;2023-11-22T11:15:49;102813.78;;;5.15;94.35
64844;BME280;51310;52.198;5.422;2023-11-22T11:18:18;102829.59;;;5.28;93.29
64844;BME280;51310;52.198;5.422;2023-11-22T11:20:49;102823.31;;;5.33;92.73
64844;BME280;51310;52.198;5.422;2023-11-22T11:23:18;102813.63;;;5.32;91.80
64844;BME280;51310;52.198;5.422;2023-11-22T11:25:49;102814.53;;;5.28;91.60
64844;BME280;51310;52.198;5.422;2023-11-22T11:28:15;102828.66;;;5.30;91.27
64844;BME280;51310;52.198;5.422;2023-11-22T11:30:49;102817.16;;;5.33;91.16
64844;BME280;51310;52.198;5.422;2023-11-22T11:33:26;102780.09;;;5.27;91.30
64844;BME280;51310;52.198;5.422;2023-11-22T11:35:58;102781.81;;;5.34;91.07
64844;BME280;51310;52.198;5.422;2023-11-22T11:38:32;102777.38;;;5.31;91.11
64844;BME280;51310;52.198;5.422;2023-11-22T11:41:10;102771.34;;;5.18;90.48
64844;BME280;51310;52.198;5.422;2023-11-22T11:43:48;102769.56;;;5.17;90.77
64844;BME280;51310;52.198;5.422;2023-11-22T11:46:16;102792.56;;;5.18;90.73
64844;BME280;51310;52.198;5.422;2023-11-22T11:48:52;102790.00;;;5.09;90.92
64844;BME280;51310;52.198;5.422;2023-11-22T11:51:25;102790.88;;;5.08;91.14
64844;BME280;51310;52.198;5.422;2023-11-22T11:53:54;102805.91;;;5.09;91.39
64844;BME280;51310;52.198;5.422;2023-11-22T11:56:21;102788.22;;;5.10;91.56
64844;BME280;51310;52.198;5.422;2023-11-22T11:58:49;102790.81;;;5.14;91.81
64844;BME280;51310;52.198;5.422;2023-11-22T12:01:16;102795.22;;;5.18;91.66
64844;BME280;51310;52.198;5.422;2023-11-22T12:03:43;102787.25;;;5.18;91.55
64844;BME280;51310;52.198;5.422;2023-11-22T12:06:10;102781.91;;;5.25;91.53
64844;BME280;51310;52.198;5.422;2023-11-22T12:08:40;102774.78;;;5.30;91.63
64844;BME280;51310;52.198;5.422;2023-11-22T12:11:06;102772.91;;;5.38;91.08
64844;BME280;51310;52.198;5.422;2023-11-22T12:13:37;102775.50;;;5.42;91.08
64844;BME280;51310;52.198;5.422;2023-11-22T12:16:05;102779.00;;;5.46;90.69
64844;BME280;51310;52.198;5.422;2023-11-22T12:18:44;102767.47;;;5.50;90.48
64844;BME280;51310;52.198;5.422;2023-11-22T12:21:11;102768.28;;;5.57;89.59
64844;BME280;51310;52.198;5.422;2023-11-22T12:23:42;102770.78;;;5.69;89.07
64844;BME280;51310;52.198;5.422;2023-11-22T12:26:16;102745.16;;;5.70;88.63
64844;BME280;51310;52.198;5.422;2023-11-22T12:28:46;102749.41;;;5.83;87.98
64844;BME280;51310;52.198;5.422;2023-11-22T12:31:15;102760.72;;;6.02;87.40
64844;BME280;51310;52.198;5.422;2023-11-22T12:33:42;102749.94;;;6.13;86.54
64844;BME280;51310;52.198;5.422;2023-11-22T12:36:11;102743.91;;;6.01;85.30
64844;BME280;51310;52.198;5.422;2023-11-22T12:38:42;102743.78;;;6.11;85.04
64844;BME280;51310;52.198;5.422;2023-11-22T12:41:08;102751.63;;;6.18;84.78
64844;BME280;51310;52.198;5.422;2023-11-22T12:43:34;102731.38;;;6.11;84.91
64844;BME280;51310;52.198;5.422;2023-11-22T12:46:05;102744.47;;;6.23;84.49
64844;BME280;51310;52.198;5.422;2023-11-22T12:48:32;102747.09;;;6.27;84.23
64844;BME280;51310;52.198;5.422;2023-11-22T12:51:00;102740.88;;;6.28;84.49
64844;BME280;51310;52.198;5.422;2023-11-22T12:53:26;102716.09;;;6.27;84.54
64844;BME280;51310;52.198;5.422;2023-11-22T12:55:56;102731.09;;;6.31;83.91